Time;durP1;ratioP1;P1;durP2;ratioP2;P2;SDS_P1;SDS_P2;PMS_P1;PMS_P2;Temp;Humidity;BMP_temperature;BMP_pressure;BME280_temperature;BME280_humidity;BME280_pressure;Samples;Min_cycle;Max_cycle;Signal;HPM_P1;HPM_P2
2023/07/09 00:02:23;;;;;;;;;;;21.70;99.90;;;;;;7298731;19;9493;-84
2023/07/09 00:08:06;;;;;;;;;;;21.70;99.90;;;;;;7298270;19;9501;-84
2023/07/09 00:10:39;;;;;;;;;;;21.60;99.90;;;;;;7299319;19;9379;-84
2023/07/09 00:13:21;;;;;;;;;;;;;;;;;;;;;
2023/07/09 00:16:01;;;;;;;;;;;21.60;99.90;;;;;;7299800;19;9553;-85
2023/07/09 00:28:57;;;;;;;;;;;21.50;99.90;;;;;;7298069;19;9319;-84
2023/07/09 00:31:40;;;;;;;;;;;21.50;99.90;;;;;;7297473;19;9584;-84
2023/07/09 00:34:21;;;;;;;;;;;21.40;99.90;;;;;;7297903;19;9402;-85
2023/07/09 00:36:56;;;;;;;;;;;21.30;99.90;;;;;;7296123;19;9294;-84
2023/07/09 00:51:32;;;;;;;;;;;21.10;99.90;;;;;;7307371;19;9221;-78
2023/07/09 01:29:03;;;;;;;;;;;20.50;99.90;;;;;;7288435;19;11149;-84
2023/07/09 01:32:05;;;;;;;;;;;;;;;;;;;;;
2023/07/09 01:39:40;;;;;;;;;;;;;;;;;;;;;
2023/07/09 02:39:19;;;;;;;;;;;;;;;;;;;;;
2023/07/09 03:49:05;;;;;;;;;;;18.80;99.90;;;;;;7311560;19;8901;-84
2023/07/09 03:51:35;;;;;;;;;;;18.80;99.90;;;;;;7305301;19;9326;-86
2023/07/09 05:41:23;;;;;;;;;;;20.60;99.90;;;;;;7296124;19;9297;-83
2023/07/09 05:44:20;;;;;;;;;;;20.70;99.90;;;;;;7297070;19;9649;-85
2023/07/09 05:46:54;;;;;;;;;;;20.80;99.90;;;;;;7292096;19;9205;-84
2023/07/09 05:49:29;;;;;;;;;;;21.00;99.90;;;;;;7294072;19;9559;-84
2023/07/09 05:59:58;;;;;;;;;;;21.50;99.90;;;;;;7291663;19;9267;-84
2023/07/09 06:59:17;;;;;;;;;;;23.30;99.90;;;;;;7313247;19;9333;-84
2023/07/09 13:32:12;;;;;;;;;;;30.70;64.70;;;;;;7295850;19;9964;-85
2023/07/09 13:45:39;;;;;;;;;;;30.20;65.40;;;;;;7295011;19;9305;-86
2023/07/09 13:48:53;;;;;;;;;;;30.20;65.80;;;;;;7293729;19;9324;-85
2023/07/09 13:51:44;;;;;;;;;;;30.00;66.70;;;;;;7293693;19;9648;-86
2023/07/09 14:20:34;;;;;;;;;;;29.40;69.00;;;;;;7277779;19;9385;-86
2023/07/09 14:23:33;;;;;;;;;;;29.40;69.50;;;;;;7296624;19;9454;-86
2023/07/09 15:21:31;;;;;;;;;;;28.60;86.20;;;;;;7295854;19;9340;-85
2023/07/09 15:32:07;;;;;;;;;;;28.50;90.30;;;;;;7295203;19;9064;-85
2023/07/09 15:58:00;;;;;;;;;;;27.90;94.20;;;;;;7335893;19;9444;-85
2023/07/09 16:06:53;;;;;;;;;;;27.80;94.60;;;;;;7326050;19;9220;-85
2023/07/09 16:09:38;;;;;;;;;;;27.70;92.50;;;;;;7332714;19;9355;-84
2023/07/09 16:12:16;;;;;;;;;;;27.30;93.20;;;;;;7330954;19;9171;-84
2023/07/09 16:15:13;;;;;;;;;;;26.60;92.90;;;;;;7330871;19;9284;-84
2023/07/09 16:18:10;;;;;;;;;;;26.10;92.10;;;;;;7329739;19;9320;-85
2023/07/09 16:20:47;;;;;;;;;;;25.70;93.40;;;;;;7330839;19;9257;-85
2023/07/09 16:23:30;;;;;;;;;;;25.40;93.10;;;;;;7330464;19;12009;-84
2023/07/09 16:26:05;;;;;;;;;;;25.30;95.30;;;;;;7332055;19;9395;-85
2023/07/09 16:28:52;;;;;;;;;;;25.10;94.30;;;;;;7334086;19;9123;-85
2023/07/09 16:31:32;;;;;;;;;;;24.70;92.40;;;;;;7334863;19;9264;-83
2023/07/09 16:34:23;;;;;;;;;;;24.50;94.20;;;;;;7332982;19;11207;-84
2023/07/09 16:36:58;;;;;;;;;;;24.20;93.80;;;;;;7327924;19;9277;-86
2023/07/09 16:39:45;;;;;;;;;;;23.80;94.20;;;;;;7330500;19;10406;-85
2023/07/09 16:45:12;;;;;;;;;;;23.40;96.40;;;;;;7327368;19;9371;-84
2023/07/09 16:47:43;;;;;;;;;;;23.10;97.50;;;;;;7316755;19;9338;-86
2023/07/09 16:57:25;;;;;;;;;;;22.30;99.90;;;;;;7296560;19;9620;-85
2023/07/09 17:19:26;;;;;;;;;;;21.30;99.90;;;;;;7298505;19;9047;-86
2023/07/09 17:22:20;;;;;;;;;;;21.40;99.90;;;;;;7299970;19;9298;-85
2023/07/09 17:25:00;;;;;;;;;;;21.30;99.90;;;;;;7299756;19;11640;-83
2023/07/09 17:28:04;;;;;;;;;;;21.80;99.90;;;;;;7303318;19;9256;-84
2023/07/09 17:31:02;;;;;;;;;;;22.30;99.90;;;;;;7303383;19;9217;-85
2023/07/09 17:33:48;;;;;;;;;;;22.30;99.90;;;;;;7304958;19;10200;-85
2023/07/09 17:39:31;;;;;;;;;;;22.00;99.90;;;;;;7296485;19;9275;-85
2023/07/09 17:42:07;;;;;;;;;;;21.80;99.90;;;;;;7301096;19;9371;-85
2023/07/09 17:44:45;;;;;;;;;;;21.60;99.90;;;;;;7298653;19;9465;-85
2023/07/09 17:47:31;;;;;;;;;;;21.60;99.90;;;;;;7299081;19;9277;-84
2023/07/09 17:50:03;;;;;;;;;;;21.40;99.90;;;;;;7298468;19;10022;-85
2023/07/09 17:52:35;;;;;;;;;;;21.50;99.90;;;;;;7298479;19;12649;-85
2023/07/09 17:55:04;;;;;;;;;;;21.60;99.90;;;;;;7299340;19;9451;-85
2023/07/09 18:01:28;;;;;;;;;;;21.50;99.90;;;;;;7297397;19;9313;-84
2023/07/09 18:21:32;;;;;;;;;;;20.30;99.90;;;;;;7262114;19;9443;-86
2023/07/09 18:24:04;;;;;;;;;;;20.10;99.90;;;;;;7257025;19;11116;-87
2023/07/09 18:36:31;;;;;;;;;;;20.00;99.90;;;;;;7260114;19;10778;-86
2023/07/09 18:39:10;;;;;;;;;;;20.00;99.90;;;;;;7261136;19;9498;-85
2023/07/09 18:51:58;;;;;;;;;;;19.70;99.90;;;;;;7295180;19;9315;-86
2023/07/09 19:12:43;;;;;;;;;;;;;;;;;;;;;
2023/07/09 19:16:03;;;;;;;;;;;19.70;99.90;;;;;;7329033;19;9455;-85
2023/07/09 19:28:48;;;;;;;;;;;19.50;99.90;;;;;;7337336;19;9243;-85
2023/07/09 19:31:21;;;;;;;;;;;19.30;99.90;;;;;;7334628;19;9256;-85
2023/07/09 19:34:27;;;;;;;;;;;19.30;99.90;;;;;;7333393;19;9368;-84
2023/07/09 19:40:25;;;;;;;;;;;19.20;99.90;;;;;;7331967;19;9504;-84
2023/07/09 19:42:57;;;;;;;;;;;19.20;99.90;;;;;;7325291;19;9315;-84
2023/07/09 19:45:40;;;;;;;;;;;19.20;99.90;;;;;;7330555;19;9742;-82
2023/07/09 19:48:16;;;;;;;;;;;18.90;99.90;;;;;;7312352;19;9220;-83
2023/07/09 19:51:06;;;;;;;;;;;18.90;99.90;;;;;;7293060;19;10422;-82
2023/07/09 19:53:35;;;;;;;;;;;18.90;99.90;;;;;;7311065;19;9864;-77
2023/07/09 19:56:04;;;;;;;;;;;19.00;99.90;;;;;;7305332;19;9247;-78
2023/07/09 20:01:04;;;;;;;;;;;18.90;99.90;;;;;;7336507;19;9369;-83
2023/07/09 20:03:37;;;;;;;;;;;18.80;99.90;;;;;;7305704;19;9423;-82
2023/07/09 20:06:08;;;;;;;;;;;18.80;99.90;;;;;;7332721;19;11124;-82
2023/07/09 20:08:37;;;;;;;;;;;18.80;99.90;;;;;;7341849;19;9402;-82
2023/07/09 20:36:59;;;;;;;;;;;18.80;99.90;;;;;;7204182;19;2932932;-78
2023/07/09 20:39:28;;;;;;;;;;;18.80;99.90;;;;;;7333583;19;9486;-79
2023/07/09 20:41:57;;;;;;;;;;;18.90;99.90;;;;;;7351032;19;9329;-78
2023/07/09 20:44:33;;;;;;;;;;;18.90;99.90;;;;;;7352773;19;9219;-75
2023/07/09 20:47:03;;;;;;;;;;;18.90;99.90;;;;;;7360839;19;9331;-73
2023/07/09 20:49:35;;;;;;;;;;;19.00;99.90;;;;;;7250594;19;15292;-74
2023/07/09 20:52:10;;;;;;;;;;;19.10;99.90;;;;;;7358057;19;9651;-78
2023/07/09 20:54:39;;;;;;;;;;;19.10;99.90;;;;;;7324365;19;9585;-78
2023/07/09 20:57:19;;;;;;;;;;;19.10;99.90;;;;;;7337685;19;9466;-78
2023/07/09 20:59:49;;;;;;;;;;;19.10;99.90;;;;;;7332833;19;9453;-78
2023/07/09 21:02:23;;;;;;;;;;;19.10;99.90;;;;;;7333090;19;9584;-78
2023/07/09 21:04:54;;;;;;;;;;;19.10;99.90;;;;;;7336206;19;9487;-78
2023/07/09 21:07:27;;;;;;;;;;;19.10;99.90;;;;;;7338575;19;9279;-78
2023/07/09 21:09:56;;;;;;;;;;;19.20;99.90;;;;;;7335681;19;10352;-78
2023/07/09 21:12:25;;;;;;;;;;;19.20;99.90;;;;;;7333969;19;9070;-78
2023/07/09 21:14:54;;;;;;;;;;;19.20;99.90;;;;;;7327589;19;9132;-78
2023/07/09 21:17:26;;;;;;;;;;;19.20;99.90;;;;;;7336892;19;9216;-78
2023/07/09 21:19:57;;;;;;;;;;;19.30;99.90;;;;;;7339058;19;9233;-78
2023/07/09 21:22:29;;;;;;;;;;;19.30;99.90;;;;;;7335681;19;9464;-77
2023/07/09 21:24:59;;;;;;;;;;;19.40;99.90;;;;;;7339616;19;10769;-80
2023/07/09 21:27:28;;;;;;;;;;;19.40;99.90;;;;;;7337136;19;11372;-78
2023/07/09 21:29:57;;;;;;;;;;;19.40;99.90;;;;;;7335946;19;9484;-78
2023/07/09 21:32:33;;;;;;;;;;;19.40;99.90;;;;;;7335366;19;9485;-78
2023/07/09 21:35:03;;;;;;;;;;;19.40;99.90;;;;;;7336232;19;9001;-78
2023/07/09 21:37:34;;;;;;;;;;;19.40;99.90;;;;;;7337651;19;9449;-78
2023/07/09 21:40:11;;;;;;;;;;;19.40;99.90;;;;;;7338899;19;9713;-78
2023/07/09 21:42:40;;;;;;;;;;;19.30;99.90;;;;;;7339299;19;9220;-78
2023/07/09 21:45:10;;;;;;;;;;;19.30;99.90;;;;;;7337814;19;9008;-78
2023/07/09 21:47:39;;;;;;;;;;;19.30;99.90;;;;;;7320857;19;10668;-77
2023/07/09 21:50:12;;;;;;;;;;;19.30;99.90;;;;;;7309686;19;9710;-78
2023/07/09 21:52:46;;;;;;;;;;;19.40;99.90;;;;;;7311591;19;9612;-78
2023/07/09 21:55:18;;;;;;;;;;;19.40;99.90;;;;;;7309479;19;9244;-78
2023/07/09 21:57:47;;;;;;;;;;;19.30;99.90;;;;;;7311595;19;9378;-78
2023/07/09 22:00:19;;;;;;;;;;;19.30;99.90;;;;;;7309702;19;9116;-78
2023/07/09 22:02:51;;;;;;;;;;;19.30;99.90;;;;;;7310448;19;9144;-78
2023/07/09 22:05:22;;;;;;;;;;;19.40;99.90;;;;;;7309436;19;9695;-78
2023/07/09 22:07:54;;;;;;;;;;;19.40;99.90;;;;;;7311589;19;9247;-78
2023/07/09 22:10:30;;;;;;;;;;;19.40;99.90;;;;;;7310644;19;9232;-78
2023/07/09 22:13:04;;;;;;;;;;;19.40;99.90;;;;;;7310239;19;9637;-78
2023/07/09 22:15:36;;;;;;;;;;;19.50;99.90;;;;;;7308354;19;10238;-78
2023/07/09 22:18:07;;;;;;;;;;;19.60;99.90;;;;;;7309003;19;9484;-78
2023/07/09 22:20:37;;;;;;;;;;;19.70;99.90;;;;;;7307869;19;9458;-78
2023/07/09 22:23:14;;;;;;;;;;;19.70;99.90;;;;;;7311045;19;9434;-78
2023/07/09 22:25:43;;;;;;;;;;;19.70;99.90;;;;;;7308918;19;9252;-78
2023/07/09 22:28:16;;;;;;;;;;;19.80;99.90;;;;;;7308133;19;9125;-78
2023/07/09 22:30:45;;;;;;;;;;;19.90;99.90;;;;;;7307784;19;11199;-78
2023/07/09 22:33:15;;;;;;;;;;;19.90;99.90;;;;;;7310141;19;11030;-78
2023/07/09 22:35:44;;;;;;;;;;;19.80;99.90;;;;;;7306661;19;9676;-78
2023/07/09 22:38:26;;;;;;;;;;;19.70;99.90;;;;;;7309990;19;9257;-78
2023/07/09 22:40:55;;;;;;;;;;;19.70;99.90;;;;;;7308464;19;9592;-78
2023/07/09 22:43:24;;;;;;;;;;;19.70;99.90;;;;;;7308571;19;10667;-77
2023/07/09 22:45:57;;;;;;;;;;;19.70;99.90;;;;;;7306013;19;10550;-78
2023/07/09 22:48:26;;;;;;;;;;;19.60;99.90;;;;;;7313369;19;9400;-78
2023/07/09 22:50:55;;;;;;;;;;;19.60;99.90;;;;;;7306773;19;9457;-78
2023/07/09 22:53:27;;;;;;;;;;;19.50;99.90;;;;;;7309037;19;9533;-78
2023/07/09 22:55:56;;;;;;;;;;;19.50;99.90;;;;;;7307763;19;9465;-78
2023/07/09 22:58:25;;;;;;;;;;;19.40;99.90;;;;;;7307006;19;11061;-78
2023/07/09 23:01:00;;;;;;;;;;;19.40;99.90;;;;;;7308010;19;9412;-78
2023/07/09 23:03:37;;;;;;;;;;;19.40;99.90;;;;;;7310886;19;9243;-78
2023/07/09 23:06:15;;;;;;;;;;;19.40;99.90;;;;;;7307037;19;10682;-78
2023/07/09 23:08:47;;;;;;;;;;;19.30;99.90;;;;;;7309402;19;10165;-78
2023/07/09 23:11:20;;;;;;;;;;;19.30;99.90;;;;;;7306239;19;9560;-78
2023/07/09 23:13:50;;;;;;;;;;;19.10;99.90;;;;;;7306124;19;9481;-78
2023/07/09 23:16:21;;;;;;;;;;;19.20;99.90;;;;;;7305143;19;10665;-78
2023/07/09 23:18:52;;;;;;;;;;;19.30;99.90;;;;;;7309331;19;9489;-78
2023/07/09 23:21:23;;;;;;;;;;;19.30;99.90;;;;;;7307607;19;8996;-78
2023/07/09 23:24:01;;;;;;;;;;;19.40;99.90;;;;;;7306477;19;9256;-78
2023/07/09 23:26:32;;;;;;;;;;;19.40;99.90;;;;;;7307303;19;9521;-78
2023/07/09 23:29:01;;;;;;;;;;;19.40;99.90;;;;;;7306429;19;9455;-78
2023/07/09 23:31:33;;;;;;;;;;;19.50;99.90;;;;;;7307305;19;9438;-78
2023/07/09 23:34:02;;;;;;;;;;;19.40;99.90;;;;;;7307444;19;9314;-78
2023/07/09 23:36:32;;;;;;;;;;;19.60;99.90;;;;;;7304722;19;9313;-78
2023/07/09 23:39:04;;;;;;;;;;;19.70;99.90;;;;;;7306958;19;9167;-78
2023/07/09 23:41:37;;;;;;;;;;;19.70;99.90;;;;;;7304157;19;10902;-78
2023/07/09 23:44:14;;;;;;;;;;;19.60;99.90;;;;;;7306589;19;9281;-78
2023/07/09 23:46:43;;;;;;;;;;;19.70;99.90;;;;;;7307187;19;9276;-78
2023/07/09 23:49:23;;;;;;;;;;;19.60;99.90;;;;;;7308677;19;10397;-78
2023/07/09 23:51:51;;;;;;;;;;;19.70;99.90;;;;;;7307739;19;9346;-78
2023/07/09 23:54:23;;;;;;;;;;;19.90;99.90;;;;;;7306706;19;9231;-78
2023/07/09 23:56:55;;;;;;;;;;;20.00;99.90;;;;;;7303426;19;9586;-78
2023/07/09 23:59:33;;;;;;;;;;;20.10;99.90;;;;;;7306161;19;10626;-78
